Jarud Qi, China
Current Conditions -  °F | °C
As of 11:30 PM on Saturday 20 Dec 2014 (Local Time) from ZYTX Reporting Station
Smoke Smoke  
Wind Chill: -2°   Ceiling: Unl
Heat Index: -2°   Visibility: 3mi
Dew Point: -6°   Wind: 2mph
Humidity: 85%   Direction: NA
Pressure: 30.33"   Gusts: NA
Location:  44.57°N, 120.9°E
Report Text: ZYTX 201530Z VRB01MPS 5000 BR FU NSC M19/M21 Q1027 NOSIG
Loading
Personal Weather Stations






























Interactive Weather Map New forecast layout! Learn more

10-Day Weather Forecast

Advertisements
Track Severe Weather on mobile